Time;durP1;ratioP1;P1;durP2;ratioP2;P2;SDS_P1;SDS_P2;PMS_P1;PMS_P2;Temp;Humidity;BMP_temperature;BMP_pressure;BME280_temperature;BME280_humidity;BME280_pressure;Samples;Min_cycle;Max_cycle;Signal;HPM_P1;HPM_P2
2023/08/18 00:00:11;;;;;;;2.97;1.65;;;;;;;;;;5007766;28;20496;-76
2023/08/18 00:02:37;;;;;;;3.80;1.50;;;;;;;;;;5010648;28;20025;-75
2023/08/18 00:05:03;;;;;;;2.00;1.70;;;;;;;;;;5008764;28;20087;-76
2023/08/18 00:07:29;;;;;;;1.80;1.60;;;;;;;;;;5009089;28;20045;-76
2023/08/18 00:09:55;;;;;;;5.70;1.70;;;;;;;;;;5006991;28;20113;-76
2023/08/18 00:12:21;;;;;;;1.60;1.50;;;;;;;;;;5006200;28;20026;-75
2023/08/18 00:14:47;;;;;;;1.83;1.40;;;;;;;;;;5007023;28;20038;-76
2023/08/18 00:17:13;;;;;;;3.35;1.65;;;;;;;;;;5006874;28;20041;-76
2023/08/18 00:19:39;;;;;;;2.05;1.65;;;;;;;;;;5009188;28;20022;-76
2023/08/18 00:22:05;;;;;;;2.58;1.80;;;;;;;;;;5009229;28;20197;-76
2023/08/18 00:24:31;;;;;;;1.50;1.40;;;;;;;;;;4999871;28;20034;-76
2023/08/18 00:26:57;;;;;;;4.40;1.77;;;;;;;;;;5006717;28;20038;-76
2023/08/18 00:29:23;;;;;;;1.98;1.75;;;;;;;;;;5008805;28;20398;-77
2023/08/18 00:31:49;;;;;;;2.00;1.70;;;;;;;;;;5009251;28;20083;-78
2023/08/18 00:34:15;;;;;;;2.78;1.80;;;;;;;;;;5005970;28;20026;-76
2023/08/18 00:36:41;;;;;;;3.38;2.40;;;;;;;;;;5006858;28;20026;-77
2023/08/18 00:39:07;;;;;;;2.08;1.67;;;;;;;;;;5009394;28;20033;-76
2023/08/18 00:41:33;;;;;;;2.72;1.65;;;;;;;;;;5008149;28;20798;-77
2023/08/18 00:44:02;;;;;;;2.13;1.80;;;;;;;;;;5007573;28;20026;-78
2023/08/18 00:46:28;;;;;;;2.20;1.90;;;;;;;;;;5009822;28;20030;-77
2023/08/18 00:48:58;;;;;;;3.35;2.22;;;;;;;;;;5003617;28;20028;-77
2023/08/18 00:51:25;;;;;;;2.30;1.95;;;;;;;;;;5008982;28;20425;-77
2023/08/18 00:53:50;;;;;;;3.50;1.75;;;;;;;;;;5005231;28;20032;-76
2023/08/18 00:56:16;;;;;;;2.45;1.77;;;;;;;;;;5006500;28;20034;-76
2023/08/18 00:58:43;;;;;;;1.50;1.25;;;;;;;;;;5009064;28;20033;-76
2023/08/18 01:01:08;;;;;;;3.30;2.10;;;;;;;;;;5008424;28;20100;-76
2023/08/18 01:03:35;;;;;;;1.75;1.52;;;;;;;;;;5008337;28;20766;-77
2023/08/18 01:06:00;;;;;;;3.55;2.13;;;;;;;;;;5008650;28;20030;-76
2023/08/18 01:08:26;;;;;;;2.70;1.65;;;;;;;;;;5006052;28;20036;-77
2023/08/18 01:10:58;;;;;;;2.25;1.83;;;;;;;;;;5002435;28;20033;-77
2023/08/18 01:13:24;;;;;;;;;;;;;;;;;;5005946;28;20049;-78
2023/08/18 01:15:51;;;;;;;2.60;1.67;;;;;;;;;;5009032;28;19996;-77
2023/08/18 01:18:17;;;;;;;2.92;1.75;;;;;;;;;;5008662;28;20092;-78
2023/08/18 01:20:44;;;;;;;1.90;1.70;;;;;;;;;;5007373;28;20030;-77
2023/08/18 01:23:09;;;;;;;2.58;1.95;;;;;;;;;;5006201;28;20034;-77
2023/08/18 01:25:35;;;;;;;1.70;1.60;;;;;;;;;;5008747;28;20030;-78
2023/08/18 01:28:03;;;;;;;2.10;1.60;;;;;;;;;;5008714;28;20054;-78
2023/08/18 01:30:55;;;;;;;2.47;1.73;;;;;;;;;;5006132;28;20038;-77
2023/08/18 01:33:25;;;;;;;5.32;1.65;;;;;;;;;;5000180;28;20125;-77
2023/08/18 01:35:53;;;;;;;2.83;1.60;;;;;;;;;;5006725;28;20045;-77
2023/08/18 01:38:21;;;;;;;3.03;1.42;;;;;;;;;;5006736;28;20034;-77
2023/08/18 01:40:47;;;;;;;3.90;2.67;;;;;;;;;;5006650;28;20030;-77
2023/08/18 01:43:13;;;;;;;2.60;1.73;;;;;;;;;;5007185;28;20070;-77
2023/08/18 01:45:39;;;;;;;2.38;1.80;;;;;;;;;;5005848;28;20021;-77
2023/08/18 01:48:05;;;;;;;2.10;1.63;;;;;;;;;;5006066;28;20041;-77
2023/08/18 01:50:31;;;;;;;2.42;1.85;;;;;;;;;;5005022;28;20038;-78
2023/08/18 01:52:57;;;;;;;2.85;1.83;;;;;;;;;;5000401;28;20036;-77
2023/08/18 01:55:22;;;;;;;2.50;1.90;;;;;;;;;;5006147;28;20489;-77
2023/08/18 01:57:48;;;;;;;2.28;2.08;;;;;;;;;;5003831;28;20507;-77
2023/08/18 02:00:14;;;;;;;2.03;1.65;;;;;;;;;;5005402;28;20045;-77
2023/08/18 02:02:40;;;;;;;2.10;1.88;;;;;;;;;;5008908;28;20095;-77
2023/08/18 02:05:07;;;;;;;1.92;1.55;;;;;;;;;;5005053;28;20482;-77
2023/08/18 02:07:33;;;;;;;4.28;3.25;;;;;;;;;;5005073;28;20038;-77
2023/08/18 02:09:59;;;;;;;2.28;1.70;;;;;;;;;;5007825;28;20030;-77
2023/08/18 02:12:25;;;;;;;2.97;1.70;;;;;;;;;;5005068;28;20129;-78
2023/08/18 02:14:51;;;;;;;3.80;1.33;;;;;;;;;;5004499;28;20030;-77
2023/08/18 02:17:17;;;;;;;3.90;1.70;;;;;;;;;;5006793;28;20030;-77
2023/08/18 02:19:43;;;;;;;2.20;1.70;;;;;;;;;;5006436;28;20033;-77
2023/08/18 02:22:09;;;;;;;3.28;1.90;;;;;;;;;;5006627;28;20034;-77
2023/08/18 02:24:35;;;;;;;1.63;1.50;;;;;;;;;;5006818;28;20499;-78
2023/08/18 02:27:01;;;;;;;2.50;1.70;;;;;;;;;;5007298;28;20390;-77
2023/08/18 02:29:27;;;;;;;1.63;1.52;;;;;;;;;;5001406;28;20033;-77
2023/08/18 02:31:53;;;;;;;2.13;1.50;;;;;;;;;;5005064;28;20041;-76
2023/08/18 02:34:19;;;;;;;2.53;1.90;;;;;;;;;;4997180;28;20022;-77
2023/08/18 02:36:45;;;;;;;2.55;1.45;;;;;;;;;;5001716;28;20033;-76
2023/08/18 02:39:11;;;;;;;4.05;1.65;;;;;;;;;;5004301;28;20490;-77
2023/08/18 02:41:37;;;;;;;1.52;1.42;;;;;;;;;;5003983;28;20141;-77
2023/08/18 02:44:03;;;;;;;2.00;1.60;;;;;;;;;;5008003;28;20030;-77
2023/08/18 02:46:29;;;;;;;2.28;1.60;;;;;;;;;;5005505;28;20070;-77
2023/08/18 02:48:55;;;;;;;2.85;1.70;;;;;;;;;;5004129;28;20029;-77
2023/08/18 02:51:21;;;;;;;1.77;1.60;;;;;;;;;;4993007;28;20490;-77
2023/08/18 02:53:50;;;;;;;2.22;1.55;;;;;;;;;;5002483;28;20034;-76
2023/08/18 02:56:16;;;;;;;2.53;1.92;;;;;;;;;;5002925;28;20592;-77
2023/08/18 02:58:42;;;;;;;2.22;2.03;;;;;;;;;;5000828;28;20053;-77
2023/08/18 03:01:08;;;;;;;1.77;1.60;;;;;;;;;;5001075;28;20026;-77
2023/08/18 03:03:37;;;;;;;2.47;1.70;;;;;;;;;;5003727;28;20402;-77
2023/08/18 03:06:09;;;;;;;3.65;2.30;;;;;;;;;;5020692;28;20034;-77
2023/08/18 03:08:39;;;;;;;2.53;1.48;;;;;;;;;;4996949;28;20022;-77
2023/08/18 03:11:05;;;;;;;2.17;1.58;;;;;;;;;;5003829;28;20065;-77
2023/08/18 03:13:34;;;;;;;3.78;1.80;;;;;;;;;;5006314;28;20042;-77
2023/08/18 03:16:00;;;;;;;2.65;1.50;;;;;;;;;;5006250;28;20022;-77
2023/08/18 03:18:26;;;;;;;1.80;1.48;;;;;;;;;;5006429;28;20050;-77
2023/08/18 03:20:59;;;;;;;15.05;2.08;;;;;;;;;;5005528;28;20085;-76
2023/08/18 03:23:25;;;;;;;2.65;1.55;;;;;;;;;;5000015;28;20457;-77
2023/08/18 03:25:51;;;;;;;3.83;2.17;;;;;;;;;;5003050;28;20029;-77
2023/08/18 03:28:17;;;;;;;1.45;1.27;;;;;;;;;;5005901;28;20103;-77
2023/08/18 03:30:43;;;;;;;2.33;1.65;;;;;;;;;;5009277;28;20033;-77
2023/08/18 03:33:09;;;;;;;1.98;1.58;;;;;;;;;;5008749;28;20034;-77
2023/08/18 03:35:35;;;;;;;3.95;2.28;;;;;;;;;;5008486;28;20029;-77
2023/08/18 03:38:02;;;;;;;2.45;1.50;;;;;;;;;;5006597;28;20026;-77
2023/08/18 03:40:28;;;;;;;1.65;1.38;;;;;;;;;;5006923;28;20034;-78
2023/08/18 03:42:54;;;;;;;2.42;1.80;;;;;;;;;;5007241;28;20117;-77
2023/08/18 03:45:20;;;;;;;2.67;1.58;;;;;;;;;;5009846;28;20033;-77
2023/08/18 03:47:46;;;;;;;1.60;1.35;;;;;;;;;;5006025;28;20037;-77
2023/08/18 03:50:13;;;;;;;2.80;1.77;;;;;;;;;;5007444;28;20037;-78
2023/08/18 03:52:39;;;;;;;2.42;1.83;;;;;;;;;;5008444;28;20026;-77
2023/08/18 03:55:05;;;;;;;3.33;1.90;;;;;;;;;;5009348;28;20034;-77
2023/08/18 03:57:31;;;;;;;2.15;1.63;;;;;;;;;;5007603;28;20505;-77
2023/08/18 03:59:57;;;;;;;1.67;1.55;;;;;;;;;;5008501;28;20065;-77
2023/08/18 04:02:23;;;;;;;1.60;1.48;;;;;;;;;;5007699;28;20036;-77
2023/08/18 04:04:49;;;;;;;2.15;1.73;;;;;;;;;;5006596;28;20408;-77
2023/08/18 04:07:16;;;;;;;2.03;1.75;;;;;;;;;;5010322;28;20450;-77
2023/08/18 04:09:42;;;;;;;1.90;1.58;;;;;;;;;;5005649;28;20033;-78
2023/08/18 04:12:08;;;;;;;2.70;1.92;;;;;;;;;;5006298;28;20469;-77
2023/08/18 04:14:34;;;;;;;4.60;1.60;;;;;;;;;;5006073;28;20037;-77
2023/08/18 04:17:00;;;;;;;2.40;1.92;;;;;;;;;;5008319;28;20390;-77
2023/08/18 04:19:26;;;;;;;1.30;1.20;;;;;;;;;;5006297;28;20037;-77
2023/08/18 04:21:55;;;;;;;2.25;1.65;;;;;;;;;;5002526;28;20026;-77
2023/08/18 04:24:21;;;;;;;4.35;1.80;;;;;;;;;;5002832;28;20034;-77
2023/08/18 04:26:47;;;;;;;2.28;1.58;;;;;;;;;;5004738;28;20034;-77
2023/08/18 04:29:13;;;;;;;2.03;1.73;;;;;;;;;;5003044;28;20030;-77
2023/08/18 04:31:39;;;;;;;1.92;1.50;;;;;;;;;;5006319;28;20114;-77
2023/08/18 04:34:05;;;;;;;3.17;2.20;;;;;;;;;;5008260;28;20038;-77
2023/08/18 04:36:32;;;;;;;1.67;1.50;;;;;;;;;;5008245;28;20080;-78
2023/08/18 04:38:58;;;;;;;3.25;1.50;;;;;;;;;;5007363;28;20084;-77
2023/08/18 04:41:24;;;;;;;2.03;1.55;;;;;;;;;;5008105;28;20030;-77
2023/08/18 04:43:51;;;;;;;2.53;1.70;;;;;;;;;;5006219;28;20030;-77
2023/08/18 04:46:17;;;;;;;1.80;1.40;;;;;;;;;;5023212;28;20033;-77
2023/08/18 04:48:43;;;;;;;2.15;1.60;;;;;;;;;;5006346;28;20052;-77
2023/08/18 04:51:10;;;;;;;2.08;1.60;;;;;;;;;;5005014;28;20030;-77
2023/08/18 04:53:36;;;;;;;4.40;2.53;;;;;;;;;;5005724;28;20030;-77
2023/08/18 04:56:03;;;;;;;2.33;1.55;;;;;;;;;;5004142;28;20022;-77
2023/08/18 04:58:29;;;;;;;2.08;1.60;;;;;;;;;;5004806;28;20069;-78
2023/08/18 05:00:55;;;;;;;2.20;1.70;;;;;;;;;;5005082;28;20123;-77
2023/08/18 05:03:21;;;;;;;3.08;1.80;;;;;;;;;;5004359;28;20083;-78
2023/08/18 05:06:02;;;;;;;1.92;1.50;;;;;;;;;;5007531;28;20101;-77
2023/08/18 05:08:29;;;;;;;2.45;1.92;;;;;;;;;;5007702;28;20161;-77
2023/08/18 05:10:58;;;;;;;2.38;1.63;;;;;;;;;;5006152;28;20026;-77
2023/08/18 05:13:24;;;;;;;2.20;1.70;;;;;;;;;;5002980;28;20037;-77
2023/08/18 05:15:51;;;;;;;3.95;2.08;;;;;;;;;;5004854;28;20578;-77
2023/08/18 05:18:18;;;;;;;2.60;1.88;;;;;;;;;;5007941;28;20079;-77
2023/08/18 05:20:44;;;;;;;2.38;1.80;;;;;;;;;;5008413;28;20033;-77
2023/08/18 05:23:09;;;;;;;2.03;1.70;;;;;;;;;;4999405;28;20030;-77
2023/08/18 05:25:35;;;;;;;1.98;1.83;;;;;;;;;;5004621;28;20045;-79
2023/08/18 05:28:02;;;;;;;1.95;1.63;;;;;;;;;;5007463;28;20154;-79
2023/08/18 05:30:28;;;;;;;1.55;1.45;;;;;;;;;;5006465;28;20022;-79
2023/08/18 05:32:54;;;;;;;2.88;1.80;;;;;;;;;;5007656;28;20033;-80
2023/08/18 05:35:20;;;;;;;2.33;2.05;;;;;;;;;;5006514;28;20547;-79
2023/08/18 05:37:46;;;;;;;3.72;2.20;;;;;;;;;;5006206;28;20030;-79
2023/08/18 05:40:12;;;;;;;2.38;1.70;;;;;;;;;;5003721;28;20021;-80
2023/08/18 05:42:38;;;;;;;3.17;1.75;;;;;;;;;;5008486;28;20033;-80
2023/08/18 05:45:04;;;;;;;1.83;1.60;;;;;;;;;;5004604;28;20038;-80
2023/08/18 05:47:30;;;;;;;2.30;2.00;;;;;;;;;;5004190;28;20064;-80
2023/08/18 05:49:57;;;;;;;2.28;1.70;;;;;;;;;;5001346;28;20030;-80
2023/08/18 05:52:23;;;;;;;6.18;2.05;;;;;;;;;;5007722;28;20032;-80
2023/08/18 05:54:49;;;;;;;2.08;1.45;;;;;;;;;;5004633;28;20030;-79
2023/08/18 05:57:14;;;;;;;3.30;2.30;;;;;;;;;;5002614;28;20022;-83
2023/08/18 05:59:40;;;;;;;2.50;1.50;;;;;;;;;;5005584;28;20479;-81
2023/08/18 06:02:06;;;;;;;2.20;1.67;;;;;;;;;;5000036;28;20030;-88
2023/08/18 06:04:32;;;;;;;7.82;1.77;;;;;;;;;;4997357;28;20027;-78
2023/08/18 06:06:59;;;;;;;5.05;1.98;;;;;;;;;;5000802;28;20466;-81
2023/08/18 06:09:25;;;;;;;2.00;1.63;;;;;;;;;;4999085;28;20505;-79
2023/08/18 06:11:51;;;;;;;2.45;1.73;;;;;;;;;;5005196;28;20218;-80
2023/08/18 06:14:19;;;;;;;3.33;2.10;;;;;;;;;;5002475;28;20052;-78
2023/08/18 06:16:45;;;;;;;4.95;2.10;;;;;;;;;;5003748;28;20478;-76
2023/08/18 06:19:12;;;;;;;14.43;4.50;;;;;;;;;;5008841;28;20025;-76
2023/08/18 06:21:38;;;;;;;28.13;7.07;;;;;;;;;;5007758;28;20026;-79
2023/08/18 06:24:04;;;;;;;34.15;8.50;;;;;;;;;;5009919;28;20056;-79
2023/08/18 06:26:30;;;;;;;49.38;7.10;;;;;;;;;;5004633;28;20056;-79
2023/08/18 06:28:56;;;;;;;38.60;9.23;;;;;;;;;;5007747;28;20077;-77
2023/08/18 06:31:22;;;;;;;33.08;6.13;;;;;;;;;;5005601;28;20027;-75
2023/08/18 06:33:48;;;;;;;28.45;6.13;;;;;;;;;;5006135;28;20078;-82
2023/08/18 06:36:14;;;;;;;15.77;4.13;;;;;;;;;;5006909;28;20032;-91
2023/08/18 06:38:40;;;;;;;20.17;4.70;;;;;;;;;;4993883;28;20395;-76
2023/08/18 06:41:06;;;;;;;16.33;5.00;;;;;;;;;;5005467;28;20429;-76
2023/08/18 06:43:32;;;;;;;15.07;4.15;;;;;;;;;;5001084;28;20394;-76
2023/08/18 06:45:58;;;;;;;9.95;4.85;;;;;;;;;;5004868;28;20029;-75
2023/08/18 06:48:24;;;;;;;7.88;3.42;;;;;;;;;;5008147;28;20022;-76
2023/08/18 06:50:50;;;;;;;6.93;3.42;;;;;;;;;;5008647;28;20482;-75
2023/08/18 06:53:16;;;;;;;16.67;4.50;;;;;;;;;;5005723;28;20111;-76
2023/08/18 06:55:44;;;;;;;5.53;3.17;;;;;;;;;;5000374;28;20057;-80
2023/08/18 06:58:12;;;;;;;12.77;3.92;;;;;;;;;;4989132;28;20022;-76
2023/08/18 07:00:38;;;;;;;7.78;3.63;;;;;;;;;;5005428;28;20042;-75
2023/08/18 07:03:04;;;;;;;7.70;3.25;;;;;;;;;;5010238;28;20041;-77
2023/08/18 07:05:30;;;;;;;7.57;3.38;;;;;;;;;;5007590;28;20046;-75
2023/08/18 07:07:59;;;;;;;12.43;3.63;;;;;;;;;;5003785;28;20132;-76
2023/08/18 07:10:28;;;;;;;10.40;4.28;;;;;;;;;;5005262;28;20034;-78
2023/08/18 07:12:54;;;;;;;15.27;4.60;;;;;;;;;;5013591;28;20398;-76
2023/08/18 07:15:20;;;;;;;19.90;5.35;;;;;;;;;;5008787;28;20025;-78
2023/08/18 07:17:46;;;;;;;13.90;4.03;;;;;;;;;;5008109;28;20127;-79
2023/08/18 07:20:15;;;;;;;17.88;5.90;;;;;;;;;;5008187;28;20022;-76
2023/08/18 07:22:41;;;;;;;33.38;6.93;;;;;;;;;;5009870;28;20038;-76
2023/08/18 07:25:10;;;;;;;20.55;5.72;;;;;;;;;;5009956;28;20133;-77
2023/08/18 07:27:36;;;;;;;24.00;6.65;;;;;;;;;;5005317;28;20046;-76
2023/08/18 07:30:04;;;;;;;32.67;6.78;;;;;;;;;;5004730;28;20057;-78
2023/08/18 07:32:30;;;;;;;71.20;9.90;;;;;;;;;;5008150;28;20030;-77
2023/08/18 07:34:56;;;;;;;90.20;13.50;;;;;;;;;;5009894;28;20533;-76
2023/08/18 07:37:22;;;;;;;69.70;13.48;;;;;;;;;;5012368;28;20430;-77
2023/08/18 07:39:48;;;;;;;160.32;14.25;;;;;;;;;;5012391;28;20033;-75
2023/08/18 07:42:16;;;;;;;79.57;13.63;;;;;;;;;;5006020;28;20442;-75
2023/08/18 07:44:42;;;;;;;53.92;10.77;;;;;;;;;;5002028;28;20026;-74
2023/08/18 07:47:08;;;;;;;50.83;8.55;;;;;;;;;;5012498;28;20061;-73
2023/08/18 07:49:34;;;;;;;44.20;9.10;;;;;;;;;;5007819;28;20033;-75
2023/08/18 07:52:00;;;;;;;31.70;6.95;;;;;;;;;;4987099;28;20126;-74
2023/08/18 07:54:26;;;;;;;32.10;7.75;;;;;;;;;;5001433;28;20030;-75
2023/08/18 07:56:52;;;;;;;22.90;6.45;;;;;;;;;;5008967;28;20025;-77
2023/08/18 07:59:18;;;;;;;39.25;8.10;;;;;;;;;;5009285;28;20033;-76
2023/08/18 08:01:44;;;;;;;25.42;7.70;;;;;;;;;;5009310;28;20144;-75
2023/08/18 08:04:10;;;;;;;21.75;6.68;;;;;;;;;;5004408;28;20022;-76
2023/08/18 08:06:36;;;;;;;18.00;5.85;;;;;;;;;;5005050;28;20030;-74
2023/08/18 08:09:03;;;;;;;21.00;6.53;;;;;;;;;;5002323;28;20800;-77
2023/08/18 08:11:29;;;;;;;6.82;4.28;;;;;;;;;;5007765;28;20025;-74
2023/08/18 08:13:55;;;;;;;21.30;6.88;;;;;;;;;;5005928;28;20399;-77
2023/08/18 08:16:21;;;;;;;16.08;6.00;;;;;;;;;;5006319;28;20048;-76
2023/08/18 08:18:47;;;;;;;9.43;4.72;;;;;;;;;;5002741;28;20037;-75
2023/08/18 08:21:13;;;;;;;14.93;5.90;;;;;;;;;;5003973;28;20041;-75
2023/08/18 08:23:39;;;;;;;17.88;5.40;;;;;;;;;;5002969;28;20022;-75
2023/08/18 08:26:05;;;;;;;20.35;5.93;;;;;;;;;;5005922;28;20041;-74
2023/08/18 08:28:31;;;;;;;12.18;4.82;;;;;;;;;;5007000;28;20092;-76
2023/08/18 08:30:57;;;;;;;11.55;4.80;;;;;;;;;;5005950;28;20038;-75
2023/08/18 08:33:23;;;;;;;20.98;5.32;;;;;;;;;;5001990;28;20045;-75
2023/08/18 08:35:49;;;;;;;10.30;5.03;;;;;;;;;;5006692;28;20026;-76
2023/08/18 08:38:15;;;;;;;13.13;4.95;;;;;;;;;;5009445;28;20029;-76
2023/08/18 08:40:42;;;;;;;7.15;4.00;;;;;;;;;;5004609;28;20026;-81
2023/08/18 08:43:08;;;;;;;13.77;5.43;;;;;;;;;;5002825;28;20034;-75
2023/08/18 08:45:34;;;;;;;7.97;3.53;;;;;;;;;;5003391;28;20033;-75
2023/08/18 08:48:05;;;;;;;6.28;4.00;;;;;;;;;;5005251;28;20608;-77
2023/08/18 08:50:33;;;;;;;10.18;3.83;;;;;;;;;;5002642;28;20116;-75
2023/08/18 08:53:00;;;;;;;8.55;3.42;;;;;;;;;;5007059;28;20045;-74
2023/08/18 08:55:27;;;;;;;12.25;3.30;;;;;;;;;;5002155;28;20030;-76
2023/08/18 08:57:54;;;;;;;6.95;3.70;;;;;;;;;;5003408;28;20533;-74
2023/08/18 09:00:20;;;;;;;8.15;3.78;;;;;;;;;;5000740;28;20047;-75
2023/08/18 09:02:46;;;;;;;9.63;2.90;;;;;;;;;;5003210;28;20076;-74
2023/08/18 09:05:12;;;;;;;6.65;3.50;;;;;;;;;;5006922;28;20053;-75
2023/08/18 09:07:38;;;;;;;7.45;2.90;;;;;;;;;;5003066;28;20037;-75
2023/08/18 09:10:05;;;;;;;9.00;3.22;;;;;;;;;;5003698;28;20125;-74
2023/08/18 09:12:32;;;;;;;5.13;3.38;;;;;;;;;;5002218;28;20121;-74
2023/08/18 09:14:58;;;;;;;14.50;3.63;;;;;;;;;;5002057;28;20157;-73
2023/08/18 09:17:27;;;;;;;3.65;2.47;;;;;;;;;;5006012;28;20164;-74
2023/08/18 09:19:56;;;;;;;11.10;4.03;;;;;;;;;;5005946;28;20095;-74
2023/08/18 09:22:23;;;;;;;11.68;3.90;;;;;;;;;;5000031;28;20398;-74
2023/08/18 09:24:52;;;;;;;30.50;5.45;;;;;;;;;;4999096;28;20383;-74
2023/08/18 09:27:20;;;;;;;57.08;6.38;;;;;;;;;;4999225;28;20968;-74
2023/08/18 09:29:46;;;;;;;16.85;5.00;;;;;;;;;;4999164;28;20442;-75
2023/08/18 09:32:12;;;;;;;41.20;7.22;;;;;;;;;;5001803;28;20026;-74
2023/08/18 09:34:38;;;;;;;17.58;4.68;;;;;;;;;;5004292;28;20037;-74
2023/08/18 09:37:05;;;;;;;34.25;6.07;;;;;;;;;;5001617;28;20034;-73
2023/08/18 09:39:31;;;;;;;33.70;6.28;;;;;;;;;;4997165;28;20029;-74
2023/08/18 09:41:57;;;;;;;75.32;9.73;;;;;;;;;;5000972;28;20028;-74
2023/08/18 09:44:23;;;;;;;61.33;8.82;;;;;;;;;;5004851;28;20026;-75
2023/08/18 09:46:55;;;;;;;39.75;8.32;;;;;;;;;;5000526;28;20021;-76
2023/08/18 09:49:21;;;;;;;18.75;5.18;;;;;;;;;;5000333;28;20512;-75
2023/08/18 09:51:50;;;;;;;30.88;5.97;;;;;;;;;;5003628;28;20445;-75
2023/08/18 09:54:18;;;;;;;26.10;4.70;;;;;;;;;;5000470;28;20037;-75
2023/08/18 09:56:46;;;;;;;19.30;4.47;;;;;;;;;;5002355;28;20033;-75
2023/08/18 09:59:26;;;;;;;16.27;4.00;;;;;;;;;;5004666;28;20034;-75
2023/08/18 10:01:53;;;;;;;17.13;3.40;;;;;;;;;;5003402;28;20045;-75
2023/08/18 10:04:24;;;;;;;8.27;3.03;;;;;;;;;;5004683;28;20080;-75
2023/08/18 10:06:51;;;;;;;6.70;2.55;;;;;;;;;;5004635;28;20144;-75
2023/08/18 10:09:17;;;;;;;6.32;3.58;;;;;;;;;;5000174;28;20029;-76
2023/08/18 10:11:43;;;;;;;5.63;2.80;;;;;;;;;;5005796;28;20025;-76
2023/08/18 10:14:09;;;;;;;4.95;3.45;;;;;;;;;;5005576;28;20026;-75
2023/08/18 10:16:36;;;;;;;4.53;2.83;;;;;;;;;;5002682;28;20118;-76
2023/08/18 10:19:02;;;;;;;19.13;4.18;;;;;;;;;;4999091;28;20072;-75
2023/08/18 10:21:28;;;;;;;43.13;6.22;;;;;;;;;;5006452;28;20033;-76
2023/08/18 10:23:54;;;;;;;26.58;4.72;;;;;;;;;;5006296;28;20038;-76
2023/08/18 10:26:23;;;;;;;16.00;3.88;;;;;;;;;;4997485;28;20060;-75
2023/08/18 10:28:51;;;;;;;7.55;3.05;;;;;;;;;;5001101;28;20037;-75
2023/08/18 10:31:17;;;;;;;10.75;2.15;;;;;;;;;;5002390;28;20038;-75
2023/08/18 10:33:44;;;;;;;7.03;2.70;;;;;;;;;;5005418;28;20040;-75
2023/08/18 10:36:11;;;;;;;6.22;2.85;;;;;;;;;;5004836;28;20033;-76
2023/08/18 10:38:39;;;;;;;3.05;2.25;;;;;;;;;;5003916;28;20076;-76
2023/08/18 10:41:05;;;;;;;3.63;2.60;;;;;;;;;;5004180;28;20030;-76
2023/08/18 10:43:47;;;;;;;4.03;2.88;;;;;;;;;;5007914;28;20506;-74
2023/08/18 10:46:13;;;;;;;7.97;3.42;;;;;;;;;;5003151;28;20072;-80
2023/08/18 10:48:39;;;;;;;2.65;2.38;;;;;;;;;;5006858;28;20041;-78
2023/08/18 10:51:06;;;;;;;4.60;2.55;;;;;;;;;;5009201;28;20034;-81
2023/08/18 10:53:36;;;;;;;4.10;2.25;;;;;;;;;;5006829;28;20152;-79
2023/08/18 10:56:03;;;;;;;3.78;2.53;;;;;;;;;;5007242;28;20048;-78
2023/08/18 10:58:29;;;;;;;3.45;2.20;;;;;;;;;;5002692;28;20598;-77
2023/08/18 11:00:55;;;;;;;3.65;2.38;;;;;;;;;;5010108;28;20029;-77
2023/08/18 11:03:21;;;;;;;7.78;2.80;;;;;;;;;;5013709;28;20026;-74
2023/08/18 11:05:47;;;;;;;5.00;2.42;;;;;;;;;;5006600;28;20060;-73
2023/08/18 11:08:14;;;;;;;4.13;2.72;;;;;;;;;;5010746;28;20069;-72
2023/08/18 11:10:40;;;;;;;3.25;2.40;;;;;;;;;;5000443;28;20910;-74
2023/08/18 11:13:06;;;;;;;6.65;2.45;;;;;;;;;;5011127;28;20437;-73
2023/08/18 11:15:35;;;;;;;4.18;2.45;;;;;;;;;;5003324;28;20027;-73
2023/08/18 11:18:02;;;;;;;2.78;2.15;;;;;;;;;;5006152;28;20141;-73
2023/08/18 11:20:28;;;;;;;3.95;2.70;;;;;;;;;;5003637;28;20114;-72
2023/08/18 11:22:54;;;;;;;3.55;2.83;;;;;;;;;;5005804;28;20030;-75
2023/08/18 11:25:24;;;;;;;3.53;2.28;;;;;;;;;;5007261;28;20025;-72
2023/08/18 11:27:52;;;;;;;2.13;1.73;;;;;;;;;;5007065;28;20386;-72
2023/08/18 11:30:18;;;;;;;2.60;1.88;;;;;;;;;;5007392;28;20518;-72
2023/08/18 11:32:45;;;;;;;3.88;2.20;;;;;;;;;;5005165;28;20717;-72
2023/08/18 11:35:12;;;;;;;4.07;2.47;;;;;;;;;;5003288;28;20053;-70
2023/08/18 11:37:42;;;;;;;13.65;3.03;;;;;;;;;;5004482;28;20494;-74
2023/08/18 11:40:10;;;;;;;9.00;2.60;;;;;;;;;;5005822;28;20068;-73
2023/08/18 11:42:38;;;;;;;8.32;3.20;;;;;;;;;;5005352;28;20034;-74
2023/08/18 11:45:07;;;;;;;3.05;2.75;;;;;;;;;;4999016;28;20036;-75
2023/08/18 11:47:33;;;;;;;7.90;2.72;;;;;;;;;;5006532;28;20030;-75
2023/08/18 11:50:03;;;;;;;3.00;2.25;;;;;;;;;;5007624;28;20096;-73
2023/08/18 11:52:39;;;;;;;8.25;2.90;;;;;;;;;;5005025;28;20514;-76
2023/08/18 11:55:05;;;;;;;3.58;2.10;;;;;;;;;;5001735;28;20041;-79
2023/08/18 11:57:31;;;;;;;4.40;1.98;;;;;;;;;;5006877;28;20030;-79
2023/08/18 11:59:57;;;;;;;5.63;2.90;;;;;;;;;;5002875;28;20271;-79
2023/08/18 12:02:23;;;;;;;2.83;2.30;;;;;;;;;;4997081;28;20044;-80
2023/08/18 12:04:51;;;;;;;3.85;2.40;;;;;;;;;;5010245;28;20037;-79
2023/08/18 12:07:17;;;;;;;5.22;2.40;;;;;;;;;;5010693;28;20041;-79
2023/08/18 12:09:45;;;;;;;3.05;2.40;;;;;;;;;;5005563;28;20026;-79
2023/08/18 12:12:15;;;;;;;4.05;2.55;;;;;;;;;;5005267;28;20034;-79
2023/08/18 12:14:41;;;;;;;2.55;2.05;;;;;;;;;;5010319;28;20041;-79
2023/08/18 12:17:07;;;;;;;3.25;2.05;;;;;;;;;;5003520;28;20548;-79
2023/08/18 12:19:33;;;;;;;2.60;2.03;;;;;;;;;;5006224;28;20021;-79
2023/08/18 12:21:59;;;;;;;2.53;2.13;;;;;;;;;;5007484;28;20022;-79
2023/08/18 12:24:25;;;;;;;2.63;2.20;;;;;;;;;;5006604;28;20030;-79
2023/08/18 12:26:51;;;;;;;3.42;2.72;;;;;;;;;;5007034;28;20497;-79
2023/08/18 12:29:17;;;;;;;3.13;2.30;;;;;;;;;;5004219;28;20037;-80
2023/08/18 12:31:43;;;;;;;2.97;2.25;;;;;;;;;;4997748;28;20053;-80
2023/08/18 12:34:09;;;;;;;2.50;2.10;;;;;;;;;;4994142;28;20132;-79
2023/08/18 12:36:34;;;;;;;1.88;1.70;;;;;;;;;;5003984;28;20021;-79
2023/08/18 12:39:00;;;;;;;2.17;1.88;;;;;;;;;;5009448;28;20038;-79
2023/08/18 12:41:28;;;;;;;3.65;2.38;;;;;;;;;;5003855;28;20026;-80
2023/08/18 12:43:54;;;;;;;2.40;1.95;;;;;;;;;;4992884;28;20050;-79
2023/08/18 12:46:20;;;;;;;4.63;2.25;;;;;;;;;;4990678;28;20113;-79
2023/08/18 12:48:46;;;;;;;3.47;2.60;;;;;;;;;;5008824;28;20045;-79
2023/08/18 12:51:17;;;;;;;3.53;2.35;;;;;;;;;;5008097;28;20030;-79
2023/08/18 12:53:43;;;;;;;3.05;2.05;;;;;;;;;;4989765;28;20022;-79
2023/08/18 12:56:09;;;;;;;3.92;2.53;;;;;;;;;;4989890;28;20037;-79
2023/08/18 12:58:35;;;;;;;2.80;2.10;;;;;;;;;;5008718;28;20030;-79
2023/08/18 13:01:01;;;;;;;3.58;2.55;;;;;;;;;;5002297;28;20030;-79
2023/08/18 13:03:27;;;;;;;3.38;2.53;;;;;;;;;;5006746;28;20030;-79
2023/08/18 13:05:53;;;;;;;3.97;3.05;;;;;;;;;;5009439;28;20088;-79
2023/08/18 13:08:19;;;;;;;2.58;2.38;;;;;;;;;;5007858;28;20050;-79
2023/08/18 13:10:45;;;;;;;4.07;3.10;;;;;;;;;;5006837;28;20513;-80
2023/08/18 13:13:12;;;;;;;3.50;2.33;;;;;;;;;;5002403;28;20057;-80
2023/08/18 13:15:38;;;;;;;3.90;2.75;;;;;;;;;;4999223;28;20026;-79
2023/08/18 13:18:05;;;;;;;3.88;2.40;;;;;;;;;;5006011;28;20026;-79
2023/08/18 13:20:31;;;;;;;3.42;2.20;;;;;;;;;;5008133;28;20030;-79
2023/08/18 13:22:57;;;;;;;2.85;2.20;;;;;;;;;;5004335;28;20069;-79
2023/08/18 13:25:30;;;;;;;3.10;2.10;;;;;;;;;;4999643;28;20033;-79
2023/08/18 13:27:56;;;;;;;3.42;2.30;;;;;;;;;;5002765;28;20036;-79
2023/08/18 13:30:23;;;;;;;3.97;2.80;;;;;;;;;;5004096;28;20038;-79
2023/08/18 13:32:49;;;;;;;3.70;2.60;;;;;;;;;;5002035;28;20026;-79
2023/08/18 13:35:15;;;;;;;3.95;2.45;;;;;;;;;;5007893;28;20036;-82
2023/08/18 13:37:41;;;;;;;3.28;2.70;;;;;;;;;;5001619;28;20500;-85
2023/08/18 13:40:07;;;;;;;2.47;2.13;;;;;;;;;;5006246;28;20038;-80
2023/08/18 13:42:33;;;;;;;4.72;2.80;;;;;;;;;;4999444;28;20080;-80
2023/08/18 13:44:59;;;;;;;3.63;2.35;;;;;;;;;;5006138;28;20034;-80
2023/08/18 13:47:26;;;;;;;4.95;2.80;;;;;;;;;;4996762;28;20038;-78
2023/08/18 13:49:52;;;;;;;5.75;2.92;;;;;;;;;;5000989;28;20029;-80
2023/08/18 13:52:18;;;;;;;4.40;3.00;;;;;;;;;;5006560;28;20048;-79
2023/08/18 13:54:44;;;;;;;4.75;3.28;;;;;;;;;;5004268;28;20030;-80
2023/08/18 13:57:10;;;;;;;4.00;2.97;;;;;;;;;;5005557;28;20026;-80
2023/08/18 13:59:36;;;;;;;4.60;3.40;;;;;;;;;;5007348;28;20049;-79
2023/08/18 14:02:02;;;;;;;4.07;3.17;;;;;;;;;;5007297;28;20033;-81
2023/08/18 14:04:28;;;;;;;4.40;3.15;;;;;;;;;;5007846;28;20029;-82
2023/08/18 14:06:56;;;;;;;4.25;3.15;;;;;;;;;;5005655;28;20033;-81
2023/08/18 14:09:24;;;;;;;5.18;3.30;;;;;;;;;;5005253;28;20535;-86
2023/08/18 14:11:50;;;;;;;4.80;2.92;;;;;;;;;;4996336;28;20060;-83
2023/08/18 14:14:16;;;;;;;5.07;3.47;;;;;;;;;;5000932;28;20386;-83
2023/08/18 14:16:42;;;;;;;4.57;3.00;;;;;;;;;;4993962;28;20029;-82
2023/08/18 14:19:10;;;;;;;4.18;3.25;;;;;;;;;;5007992;28;20033;-83
2023/08/18 14:21:37;;;;;;;6.70;3.55;;;;;;;;;;5005807;28;20099;-83
2023/08/18 14:24:03;;;;;;;4.45;3.28;;;;;;;;;;5003462;28;20034;-83
2023/08/18 14:26:29;;;;;;;5.72;3.08;;;;;;;;;;5007011;28;20482;-84
2023/08/18 14:28:55;;;;;;;4.45;3.35;;;;;;;;;;5003891;28;20033;-84
2023/08/18 14:31:21;;;;;;;4.68;3.20;;;;;;;;;;4997986;28;20037;-84
2023/08/18 14:33:47;;;;;;;3.92;2.97;;;;;;;;;;5006812;28;20051;-83
2023/08/18 14:36:15;;;;;;;4.55;3.35;;;;;;;;;;5006936;28;20057;-84